createdAt,value
2018-06-16T00:01:21.187Z,16.70
2018-06-16T00:03:53.122Z,16.70
2018-06-16T00:06:24.229Z,16.70
2018-06-16T00:08:54.955Z,16.60
2018-06-16T00:13:57.684Z,16.50
2018-06-16T00:16:29.735Z,16.50
2018-06-16T00:19:02.328Z,16.40
2018-06-16T00:21:34.032Z,16.40
2018-06-16T00:24:05.105Z,16.40
2018-06-16T00:26:36.325Z,16.40
2018-06-16T00:29:07.341Z,16.40
2018-06-16T00:31:38.703Z,16.40
2018-06-16T00:34:10.610Z,16.40
2018-06-16T00:36:41.692Z,16.30
2018-06-16T00:39:13.445Z,16.30
2018-06-16T00:41:44.373Z,16.30
2018-06-16T00:44:16.469Z,16.20
2018-06-16T00:46:47.677Z,16.20
2018-06-16T00:49:18.740Z,16.10
2018-06-16T00:51:49.847Z,16.10
2018-06-16T00:54:21.035Z,16.00
2018-06-16T00:57:08.342Z,16.00
2018-06-16T00:59:39.545Z,15.90
2018-06-16T01:02:10.819Z,15.80
2018-06-16T01:04:42.913Z,15.80
2018-06-16T01:07:15.195Z,15.80
2018-06-16T01:09:47.176Z,15.80
2018-06-16T01:12:18.498Z,15.70
2018-06-16T01:14:49.710Z,15.70
2018-06-16T01:17:20.632Z,15.70
2018-06-16T01:19:52.262Z,15.60
2018-06-16T01:22:24.293Z,15.60
2018-06-16T01:24:55.265Z,15.60
2018-06-16T01:27:26.515Z,15.60
2018-06-16T01:29:57.815Z,15.60
2018-06-16T01:32:29.371Z,15.60
2018-06-16T01:35:00.672Z,15.60
2018-06-16T01:37:31.927Z,15.60
2018-06-16T01:40:02.908Z,15.60
2018-06-16T01:42:34.521Z,15.50
2018-06-16T01:45:05.739Z,15.40
2018-06-16T01:47:36.843Z,15.30
2018-06-16T01:50:08.748Z,15.30
2018-06-16T01:52:39.794Z,15.30
2018-06-16T01:55:10.868Z,15.20
2018-06-16T01:57:42.582Z,15.10
2018-06-16T02:00:13.505Z,15.00
2018-06-16T02:02:44.539Z,15.00
2018-06-16T02:05:15.675Z,14.90
2018-06-16T02:07:48.622Z,14.90
2018-06-16T02:10:20.253Z,14.90
2018-06-16T02:12:51.478Z,14.90
2018-06-16T02:17:53.585Z,15.00
2018-06-16T02:20:24.771Z,15.00
2018-06-16T02:25:26.832Z,14.90
2018-06-16T02:27:57.963Z,14.90
2018-06-16T02:30:29.533Z,14.90
2018-06-16T02:33:01.693Z,14.90
2018-06-16T02:35:33.868Z,15.00
2018-06-16T02:38:05.405Z,14.90
2018-06-16T02:40:36.449Z,14.90
2018-06-16T02:43:07.792Z,14.90
2018-06-16T02:45:40.164Z,14.90
2018-06-16T02:50:42.385Z,14.70
2018-06-16T02:53:13.770Z,14.70
2018-06-16T02:55:44.882Z,14.70
2018-06-16T02:58:15.954Z,14.70
2018-06-16T03:00:46.998Z,14.70
2018-06-16T03:03:18.205Z,14.70
2018-06-16T03:08:21.321Z,14.60
2018-06-16T03:10:52.323Z,14.60
2018-06-16T03:13:23.673Z,14.60
2018-06-16T03:15:55.286Z,14.50
2018-06-16T03:18:26.688Z,14.40
2018-06-16T03:20:57.806Z,14.40
2018-06-16T03:23:29.058Z,14.30
2018-06-16T03:26:00.453Z,14.30
2018-06-16T03:28:32.023Z,14.20
2018-06-16T03:31:02.966Z,14.20
2018-06-16T03:33:34.708Z,14.20
2018-06-16T03:36:05.868Z,14.20
2018-06-16T03:38:37.016Z,14.30
2018-06-16T03:41:08.178Z,14.40
2018-06-16T03:43:39.385Z,14.50
2018-06-16T03:46:10.804Z,14.50
2018-06-16T03:48:42.780Z,14.60
2018-06-16T03:51:13.725Z,14.60
2018-06-16T03:53:45.025Z,14.70
2018-06-16T03:56:16.548Z,14.70
2018-06-16T03:58:48.115Z,14.80
2018-06-16T04:01:19.341Z,14.80
2018-06-16T04:08:52.991Z,15.00
2018-06-16T04:11:24.251Z,15.00
2018-06-16T04:13:56.832Z,15.00
2018-06-16T04:16:28.085Z,15.00
2018-06-16T04:18:59.796Z,15.00
2018-06-16T04:21:31.261Z,15.10
2018-06-16T04:24:02.443Z,15.10
2018-06-16T04:26:33.880Z,15.10
2018-06-16T04:29:05.151Z,15.10
2018-06-16T04:31:36.489Z,15.20
2018-06-16T04:34:08.605Z,15.20
2018-06-16T04:36:39.871Z,15.20
2018-06-16T04:39:11.852Z,15.30
2018-06-16T04:41:42.998Z,15.40
2018-06-16T04:44:14.030Z,15.50
2018-06-16T04:46:46.246Z,15.70
2018-06-16T04:49:17.387Z,15.80
2018-06-16T04:51:48.654Z,15.90
2018-06-16T04:54:20.011Z,16.00
2018-06-16T04:59:22.163Z,16.30
2018-06-16T05:01:53.185Z,16.40
2018-06-16T05:04:24.722Z,16.60
2018-06-16T05:06:55.751Z,16.70
2018-06-16T05:09:27.822Z,16.90
2018-06-16T05:11:59.146Z,17.00
2018-06-16T05:14:30.622Z,17.20
2018-06-16T05:17:01.960Z,17.30
2018-06-16T05:19:33.734Z,17.50
2018-06-16T05:22:05.694Z,17.70
2018-06-16T05:24:36.800Z,17.80
2018-06-16T05:27:08.508Z,18.10
2018-06-16T05:29:39.698Z,18.20
2018-06-16T05:32:11.003Z,18.30
2018-06-16T05:34:43.111Z,18.50
2018-06-16T05:37:15.180Z,18.60
2018-06-16T05:42:16.886Z,18.80
2018-06-16T05:44:49.936Z,19.00
2018-06-16T05:47:21.188Z,19.10
2018-06-16T05:49:52.286Z,19.20
2018-06-16T05:52:24.784Z,19.40
2018-06-16T05:54:57.105Z,19.70
2018-06-16T05:57:28.605Z,19.80
2018-06-16T05:59:59.853Z,20.00
2018-06-16T06:02:31.644Z,20.10
2018-06-16T06:05:02.955Z,20.30
2018-06-16T06:07:34.551Z,20.60
2018-06-16T06:10:06.279Z,20.80
2018-06-16T06:12:38.245Z,21.00
2018-06-16T06:15:10.027Z,21.30
2018-06-16T06:17:41.296Z,21.40
2018-06-16T06:20:11.967Z,21.60
2018-06-16T06:22:43.658Z,21.80
2018-06-16T06:25:16.063Z,21.90
2018-06-16T06:27:47.225Z,22.20
2018-06-16T06:30:18.247Z,22.70
2018-06-16T06:32:49.629Z,23.20
2018-06-16T06:35:20.629Z,23.70
2018-06-16T06:42:54.316Z,24.80
2018-06-16T06:45:26.188Z,25.10
2018-06-16T06:50:28.462Z,25.30
2018-06-16T06:52:59.795Z,25.40
2018-06-16T06:55:32.429Z,25.60
2018-06-16T06:58:04.340Z,25.80
2018-06-16T07:00:36.052Z,25.60
2018-06-16T07:03:06.891Z,25.90
2018-06-16T07:08:09.412Z,26.30
2018-06-16T07:10:40.494Z,26.40
2018-06-16T07:13:12.207Z,26.60
2018-06-16T07:15:44.384Z,26.70
2018-06-16T07:18:16.056Z,26.10
2018-06-16T07:20:48.096Z,26.60
2018-06-16T07:23:19.869Z,26.60
2018-06-16T07:25:52.215Z,26.70
2018-06-16T07:28:23.374Z,26.70
2018-06-16T07:30:55.209Z,26.80
2018-06-16T07:33:27.707Z,26.10
2018-06-16T07:38:31.989Z,26.80
2018-06-16T07:41:03.373Z,26.60
2018-06-16T07:43:34.728Z,26.50
2018-06-16T07:46:07.082Z,26.40
2018-06-16T07:48:39.656Z,26.70
2018-06-16T07:51:11.358Z,27.00
2018-06-16T07:53:43.720Z,27.50
2018-06-16T07:56:15.094Z,28.10
2018-06-16T07:58:46.335Z,27.90
2018-06-16T08:01:17.574Z,27.40
2018-06-16T08:03:49.183Z,27.10
2018-06-16T08:06:20.859Z,27.10
2018-06-16T08:08:53.183Z,27.50
2018-06-16T08:11:25.151Z,27.80
2018-06-16T08:16:28.674Z,27.90
2018-06-16T08:18:59.732Z,28.20
2018-06-16T08:21:31.369Z,28.70
2018-06-16T08:24:02.490Z,28.40
2018-06-16T08:26:33.995Z,28.40
2018-06-16T08:29:05.718Z,28.70
2018-06-16T08:31:38.422Z,28.90
2018-06-16T08:34:10.492Z,29.00
2018-06-16T08:36:41.700Z,28.90
2018-06-16T08:39:13.456Z,29.30
2018-06-16T08:41:46.122Z,29.50
2018-06-16T08:44:17.909Z,30.20
2018-06-16T08:46:49.134Z,30.30
2018-06-16T08:49:20.367Z,30.00
2018-06-16T08:51:51.550Z,29.40
2018-06-16T08:54:23.834Z,29.10
2018-06-16T08:59:26.979Z,29.20
2018-06-16T09:01:59.259Z,29.60
2018-06-16T09:04:31.526Z,29.60
2018-06-16T09:07:05.247Z,29.10
2018-06-16T09:09:37.612Z,29.30
2018-06-16T09:12:09.239Z,29.60
2018-06-16T09:14:41.951Z,29.90
2018-06-16T09:17:17.064Z,30.00
2018-06-16T09:19:48.686Z,30.60
2018-06-16T09:22:20.108Z,30.90
2018-06-16T09:24:53.198Z,31.70
2018-06-16T09:27:29.966Z,31.60
2018-06-16T09:30:00.968Z,31.80
2018-06-16T09:32:31.994Z,31.80
2018-06-16T09:35:04.052Z,31.60
2018-06-16T09:37:35.803Z,31.50
2018-06-16T09:40:08.006Z,31.90
2018-06-16T09:42:39.086Z,32.50
2018-06-16T09:45:10.540Z,32.80
2018-06-16T09:47:42.930Z,32.70
2018-06-16T09:50:15.226Z,32.50
2018-06-16T09:52:46.839Z,32.30
2018-06-16T09:55:19.456Z,32.00
2018-06-16T09:57:51.141Z,31.90
2018-06-16T10:00:24.379Z,32.50
2018-06-16T10:02:56.526Z,32.80
2018-06-16T10:05:28.636Z,33.10
2018-06-16T10:07:59.809Z,33.40
2018-06-16T10:10:31.137Z,33.70
2018-06-16T10:13:02.315Z,33.10
2018-06-16T10:15:34.267Z,33.00
2018-06-16T10:18:05.791Z,33.30
2018-06-16T10:20:37.861Z,33.00
2018-06-16T10:23:09.960Z,32.80
2018-06-16T10:25:41.409Z,32.90
2018-06-16T10:28:13.433Z,33.50
2018-06-16T10:30:44.973Z,33.20
2018-06-16T10:33:22.747Z,32.10
2018-06-16T10:35:54.807Z,31.40
2018-06-16T10:38:27.118Z,31.20
2018-06-16T10:43:31.124Z,30.50
2018-06-16T10:46:02.451Z,30.10
2018-06-16T10:51:04.361Z,29.40
2018-06-16T10:53:35.804Z,29.40
2018-06-16T10:56:08.654Z,29.10
2018-06-16T10:58:40.219Z,29.40
2018-06-16T11:01:11.602Z,30.50
2018-06-16T11:03:43.080Z,31.40
2018-06-16T11:06:14.274Z,31.10
2018-06-16T11:08:46.465Z,30.70
2018-06-16T11:11:17.912Z,30.20
2018-06-16T11:13:49.943Z,29.80
2018-06-16T11:16:21.560Z,29.50
2018-06-16T11:18:53.353Z,29.50
2018-06-16T11:21:24.708Z,29.90
2018-06-16T11:23:56.029Z,30.60
2018-06-16T11:26:27.341Z,31.50
2018-06-16T11:28:59.475Z,32.40
2018-06-16T11:31:32.481Z,32.70
2018-06-16T11:34:04.391Z,32.80
2018-06-16T11:36:35.675Z,33.20
2018-06-16T11:39:13.911Z,32.60
2018-06-16T11:41:45.570Z,32.00
2018-06-16T11:44:16.957Z,31.40
2018-06-16T11:46:49.961Z,30.90
2018-06-16T11:49:21.394Z,30.60
2018-06-16T11:51:57.529Z,31.20
2018-06-16T11:54:29.072Z,32.00
2018-06-16T11:57:00.593Z,32.70
2018-06-16T11:59:32.111Z,32.70
2018-06-16T12:02:04.482Z,32.40
2018-06-16T12:04:36.301Z,31.70
2018-06-16T12:09:38.192Z,32.10
2018-06-16T12:12:09.958Z,32.30
2018-06-16T12:14:41.203Z,31.70
2018-06-16T12:17:12.516Z,32.40
2018-06-16T12:19:44.863Z,32.80
2018-06-16T12:24:48.555Z,33.60
2018-06-16T12:27:20.270Z,33.90
2018-06-16T12:29:51.462Z,34.30
2018-06-16T12:32:22.561Z,34.40
2018-06-16T12:34:53.860Z,34.00
2018-06-16T12:37:25.854Z,34.00
2018-06-16T12:40:00.633Z,34.00
2018-06-16T12:42:32.080Z,33.20
2018-06-16T12:45:04.716Z,32.30
2018-06-16T12:47:36.339Z,32.00
2018-06-16T12:50:09.935Z,32.30
2018-06-16T12:52:43.309Z,32.50
2018-06-16T12:55:15.578Z,32.70
2018-06-16T12:57:48.970Z,33.40
2018-06-16T13:00:22.088Z,33.70
2018-06-16T13:02:56.093Z,34.30
2018-06-16T13:05:27.793Z,34.30
2018-06-16T13:08:00.404Z,34.10
2018-06-16T13:10:40.366Z,33.80
2018-06-16T13:13:12.923Z,33.10
2018-06-16T13:15:44.441Z,32.40
2018-06-16T13:18:23.628Z,33.00
2018-06-16T13:23:27.329Z,33.10
2018-06-16T13:25:59.380Z,33.10
2018-06-16T13:28:31.445Z,33.00
2018-06-16T13:31:03.443Z,33.50
2018-06-16T13:33:37.025Z,33.40
2018-06-16T13:36:11.174Z,33.20
2018-06-16T13:38:42.309Z,33.10
2018-06-16T13:43:44.584Z,33.10
2018-06-16T13:46:16.851Z,33.00
2018-06-16T13:48:49.522Z,32.90
2018-06-16T13:53:53.042Z,33.40
2018-06-16T13:56:25.154Z,33.40
2018-06-16T14:01:27.729Z,33.20
2018-06-16T14:03:59.054Z,33.00
2018-06-16T14:06:31.775Z,33.10
2018-06-16T14:09:05.378Z,32.70
2018-06-16T14:11:40.284Z,32.40
2018-06-16T14:14:13.252Z,31.80
2018-06-16T14:16:48.766Z,31.70
2018-06-16T14:19:25.895Z,31.60
2018-06-16T14:22:00.232Z,32.00
2018-06-16T14:24:31.924Z,32.20
2018-06-16T14:27:06.520Z,32.50
2018-06-16T14:29:46.199Z,32.60
2018-06-16T14:32:19.394Z,32.50
2018-06-16T14:34:50.972Z,32.50
2018-06-16T14:37:22.284Z,32.20
2018-06-16T14:39:54.265Z,32.40
2018-06-16T14:42:26.497Z,32.40
2018-06-16T14:44:58.991Z,32.30
2018-06-16T14:47:32.054Z,32.00
2018-06-16T14:50:08.196Z,31.60
2018-06-16T14:52:40.781Z,31.10
2018-06-16T14:55:12.529Z,30.40
2018-06-16T15:00:16.547Z,29.90
2018-06-16T15:02:49.012Z,29.70
2018-06-16T15:05:22.361Z,30.00
2018-06-16T15:07:54.552Z,30.30
2018-06-16T15:10:26.444Z,30.40
2018-06-16T15:12:57.936Z,30.50
2018-06-16T15:18:03.360Z,30.20
2018-06-16T15:20:40.989Z,30.20
2018-06-16T15:23:14.880Z,30.40
2018-06-16T15:25:48.408Z,30.40
2018-06-16T15:28:23.104Z,30.40
2018-06-16T15:30:54.673Z,29.90
2018-06-16T15:36:00.765Z,29.80
2018-06-16T15:38:33.024Z,30.00
2018-06-16T15:41:05.728Z,30.10
2018-06-16T15:43:37.417Z,30.00
2018-06-16T15:46:09.728Z,29.60
2018-06-16T15:49:00.152Z,29.70
2018-06-16T15:51:34.036Z,29.60
2018-06-16T15:54:11.006Z,29.70
2018-06-16T15:56:42.780Z,29.60
2018-06-16T15:59:15.048Z,29.70
2018-06-16T16:01:46.690Z,29.60
2018-06-16T16:04:18.590Z,29.60
2018-06-16T16:06:50.407Z,29.60
2018-06-16T16:09:21.567Z,29.60
2018-06-16T16:11:54.455Z,29.60
2018-06-16T16:14:27.102Z,29.70
2018-06-16T16:16:59.185Z,29.60
2018-06-16T16:19:30.581Z,29.60
2018-06-16T16:22:03.415Z,29.60
2018-06-16T16:24:35.016Z,29.40
2018-06-16T16:29:43.008Z,29.20
2018-06-16T16:32:15.924Z,29.20
2018-06-16T16:34:47.646Z,29.10
2018-06-16T16:37:18.910Z,29.10
2018-06-16T16:39:51.015Z,29.00
2018-06-16T16:42:22.764Z,28.90
2018-06-16T16:44:54.963Z,28.90
2018-06-16T16:47:26.525Z,28.70
2018-06-16T16:49:59.880Z,28.70
2018-06-16T16:52:31.098Z,28.70
2018-06-16T16:57:39.743Z,28.70
2018-06-16T17:00:11.682Z,28.70
2018-06-16T17:02:43.800Z,28.70
2018-06-16T17:05:19.701Z,28.60
2018-06-16T17:07:52.630Z,28.60
2018-06-16T17:10:24.576Z,28.50
2018-06-16T17:12:56.612Z,28.40
2018-06-16T17:15:27.785Z,28.40
2018-06-16T17:17:58.939Z,28.30
2018-06-16T17:20:30.543Z,28.20
2018-06-16T17:23:03.107Z,28.10
2018-06-16T17:25:35.153Z,28.00
2018-06-16T17:28:07.706Z,27.90
2018-06-16T17:30:39.053Z,27.90
2018-06-16T17:33:10.128Z,27.90
2018-06-16T17:35:42.247Z,27.70
2018-06-16T17:38:13.419Z,27.70
2018-06-16T17:40:45.175Z,27.70
2018-06-16T17:43:17.298Z,27.70
2018-06-16T17:45:48.748Z,27.60
2018-06-16T17:48:19.755Z,27.40
2018-06-16T17:50:50.683Z,27.40
2018-06-16T17:53:22.813Z,27.40
2018-06-16T17:55:56.323Z,27.30
2018-06-16T17:58:28.157Z,27.20
2018-06-16T18:01:00.345Z,27.10
2018-06-16T18:03:32.894Z,27.00
2018-06-16T18:06:05.191Z,26.90
2018-06-16T18:08:37.291Z,26.80
2018-06-16T18:11:08.430Z,26.70
2018-06-16T18:13:39.853Z,26.60
2018-06-16T18:16:11.490Z,26.50
2018-06-16T18:18:43.556Z,26.40
2018-06-16T18:21:14.882Z,26.30
2018-06-16T18:23:45.982Z,26.20
2018-06-16T18:26:17.150Z,26.10
2018-06-16T18:28:48.426Z,26.00
2018-06-16T18:31:20.292Z,25.90
2018-06-16T18:33:52.098Z,25.80
2018-06-16T18:36:24.269Z,25.70
2018-06-16T18:38:55.712Z,25.60
2018-06-16T18:41:28.360Z,25.50
2018-06-16T18:44:01.097Z,25.40
2018-06-16T18:46:32.565Z,25.30
2018-06-16T18:49:03.610Z,25.20
2018-06-16T18:51:36.750Z,25.10
2018-06-16T18:56:40.283Z,24.90
2018-06-16T18:59:11.781Z,24.80
2018-06-16T19:04:15.576Z,24.60
2018-06-16T19:06:48.911Z,24.50
2018-06-16T19:09:22.028Z,24.50
2018-06-16T19:11:53.986Z,24.40
2018-06-16T19:14:25.525Z,24.30
2018-06-16T19:16:57.049Z,24.30
2018-06-16T19:19:28.479Z,24.30
2018-06-16T19:22:00.350Z,24.30
2018-06-16T19:24:32.661Z,24.30
2018-06-16T19:27:04.450Z,24.20
2018-06-16T19:29:36.314Z,24.20
2018-06-16T19:32:08.894Z,24.20
2018-06-16T19:34:41.220Z,24.10
2018-06-16T19:37:13.387Z,24.10
2018-06-16T19:39:45.415Z,24.00
2018-06-16T19:42:16.720Z,24.00
2018-06-16T19:44:48.904Z,24.00
2018-06-16T19:47:21.334Z,24.00
2018-06-16T19:49:56.447Z,24.00
2018-06-16T19:52:29.063Z,23.90
2018-06-16T19:55:00.344Z,23.80
2018-06-16T19:57:32.348Z,23.60
2018-06-16T20:02:40.630Z,23.20
2018-06-16T20:05:12.784Z,23.00
2018-06-16T20:07:46.321Z,22.70
2018-06-16T20:10:18.901Z,22.60
2018-06-16T20:12:52.326Z,22.40
2018-06-16T20:15:26.974Z,22.20
2018-06-16T20:18:01.402Z,22.10
2018-06-16T20:20:34.071Z,21.90
2018-06-16T20:23:05.930Z,21.80
2018-06-16T20:25:40.762Z,21.70
2018-06-16T20:28:13.070Z,21.60
2018-06-16T20:30:45.845Z,21.50
2018-06-16T20:33:17.689Z,21.50
2018-06-16T20:35:49.592Z,21.40
2018-06-16T20:38:22.135Z,21.40
2018-06-16T20:40:55.135Z,21.40
2018-06-16T20:43:27.942Z,21.30
2018-06-16T20:45:59.744Z,21.10
2018-06-16T20:48:31.031Z,20.90
2018-06-16T20:51:03.185Z,20.70
2018-06-16T20:53:37.047Z,20.50
2018-06-16T20:56:10.400Z,20.50
2018-06-16T20:58:42.295Z,20.40
2018-06-16T21:01:15.798Z,20.30
2018-06-16T21:03:48.616Z,20.30
2018-06-16T21:06:21.422Z,20.20
2018-06-16T21:11:24.385Z,20.20
2018-06-16T21:13:55.625Z,20.10
2018-06-16T21:16:27.976Z,20.00
2018-06-16T21:18:59.773Z,20.00
2018-06-16T21:21:34.284Z,20.00
2018-06-16T21:24:05.931Z,19.90
2018-06-16T21:26:37.224Z,19.90
2018-06-16T21:29:09.979Z,19.90
2018-06-16T21:31:41.817Z,19.80
2018-06-16T21:34:15.552Z,19.70
2018-06-16T21:39:18.708Z,19.50
2018-06-16T21:41:49.894Z,19.50
2018-06-16T21:44:21.813Z,19.40
2018-06-16T21:46:53.966Z,19.40
2018-06-16T21:49:25.478Z,19.40
2018-06-16T21:54:28.977Z,19.30
2018-06-16T21:57:03.325Z,19.20
2018-06-16T21:59:34.912Z,19.20
2018-06-16T22:02:09.532Z,19.20
2018-06-16T22:04:41.283Z,19.10
2018-06-16T22:07:12.787Z,19.10
2018-06-16T22:09:49.369Z,19.00
2018-06-16T22:12:22.063Z,18.90
2018-06-16T22:14:54.630Z,18.90
2018-06-16T22:17:26.109Z,18.70
2018-06-16T22:19:57.486Z,18.60
2018-06-16T22:22:29.551Z,18.50
2018-06-16T22:25:01.132Z,18.50
2018-06-16T22:27:32.299Z,18.50
2018-06-16T22:30:04.718Z,18.50
2018-06-16T22:32:36.053Z,18.50
2018-06-16T22:35:07.139Z,18.50
2018-06-16T22:37:37.878Z,18.50
2018-06-16T22:40:09.163Z,18.20
2018-06-16T22:42:40.449Z,18.10
2018-06-16T22:45:11.804Z,18.00
2018-06-16T22:47:44.198Z,18.00
2018-06-16T22:50:15.364Z,17.90
2018-06-16T22:52:46.572Z,17.90
2018-06-16T22:55:17.742Z,17.80
2018-06-16T22:57:49.442Z,17.80
2018-06-16T23:00:29.436Z,17.70
2018-06-16T23:03:01.172Z,17.70
2018-06-16T23:05:32.679Z,17.60
2018-06-16T23:08:04.297Z,17.60
2018-06-16T23:10:36.260Z,17.50
2018-06-16T23:13:07.472Z,17.40
2018-06-16T23:15:39.353Z,17.40
2018-06-16T23:18:12.579Z,17.30
2018-06-16T23:20:44.397Z,17.30
2018-06-16T23:23:15.869Z,17.20
2018-06-16T23:25:47.474Z,17.30
2018-06-16T23:28:18.745Z,17.30
2018-06-16T23:30:50.391Z,17.20
2018-06-16T23:33:21.719Z,17.20
2018-06-16T23:35:53.701Z,17.20
2018-06-16T23:40:56.886Z,17.20
2018-06-16T23:43:28.069Z,17.10
2018-06-16T23:45:59.432Z,17.10
2018-06-16T23:48:30.770Z,17.00
2018-06-16T23:51:03.682Z,17.00
2018-06-16T23:53:35.530Z,16.90
2018-06-16T23:56:07.427Z,16.90
2018-06-16T23:58:38.563Z,16.80
